createdAt,value
2022-09-22T00:00:34.627Z,100014.13
2022-09-22T00:01:41.843Z,100009.38
2022-09-22T00:02:43.979Z,100012.19
2022-09-22T00:03:52.192Z,100013.78
2022-09-22T00:04:54.443Z,100009.81
2022-09-22T00:06:04.494Z,100016.97
2022-09-22T00:07:07.893Z,100012.63
2022-09-22T00:08:10.040Z,100019.34
2022-09-22T00:09:14.857Z,100027.28
2022-09-22T00:10:18.700Z,100015.38
2022-09-22T00:11:25.146Z,100020.94
2022-09-22T00:12:29.059Z,100027.25
2022-09-22T00:13:33.496Z,100024.91
2022-09-22T00:14:35.623Z,100021.34
2022-09-22T00:15:38.010Z,100026.50
2022-09-22T00:16:42.583Z,100028.06
2022-09-22T00:17:47.143Z,100027.25
2022-09-22T00:18:50.712Z,100031.59
2022-09-22T00:19:54.247Z,100024.44
2022-09-22T00:20:57.448Z,100031.19
2022-09-22T00:22:00.309Z,100024.47
2022-09-22T00:23:04.609Z,100028.03
2022-09-22T00:24:08.661Z,100024.88
2022-09-22T00:25:11.410Z,100026.47
2022-09-22T00:26:18.763Z,100019.72
2022-09-22T00:27:21.076Z,100019.31
2022-09-22T00:28:26.000Z,100021.28
2022-09-22T00:29:30.878Z,100016.53
2022-09-22T00:30:33.178Z,100014.56
2022-09-22T00:31:39.899Z,100015.78
2022-09-22T00:32:44.270Z,100016.56
2022-09-22T00:33:48.130Z,100017.34
2022-09-22T00:34:51.420Z,100021.69
2022-09-22T00:35:58.865Z,100020.16
2022-09-22T00:37:01.380Z,100014.59
2022-09-22T00:38:03.458Z,100025.69
2022-09-22T00:39:07.680Z,100025.31
2022-09-22T00:40:12.143Z,100031.22
2022-09-22T00:41:25.363Z,100026.50
2022-09-22T00:42:28.243Z,100026.47
2022-09-22T00:43:34.012Z,100018.53
2022-09-22T00:44:46.972Z,100018.56
2022-09-22T00:45:54.888Z,100019.34
2022-09-22T00:47:06.486Z,100013.81
2022-09-22T00:48:10.137Z,100009.81
2022-09-22T00:49:18.056Z,100007.03
2022-09-22T00:50:24.559Z,100006.28
2022-09-22T00:51:31.634Z,100011.00
2022-09-22T00:52:41.504Z,100003.53
2022-09-22T00:53:44.265Z,100017.41
2022-09-22T00:54:48.702Z,100009.88
2022-09-22T00:56:02.273Z,100009.03
2022-09-22T00:57:14.475Z,100008.66
2022-09-22T00:58:21.888Z,100015.41
2022-09-22T00:59:27.636Z,100009.47
2022-09-22T01:00:29.848Z,100005.50
2022-09-22T01:01:33.925Z,100010.69
2022-09-22T01:02:36.450Z,100009.09
2022-09-22T01:03:43.276Z,100008.28
2022-09-22T01:04:46.561Z,100005.13
2022-09-22T01:05:52.895Z,100003.50
2022-09-22T01:06:58.580Z,100012.66
2022-09-22T01:08:03.378Z,100006.69
2022-09-22T01:09:08.344Z,100003.13
2022-09-22T01:10:16.506Z,100018.56
2022-09-22T01:11:21.319Z,100013.81
2022-09-22T01:12:31.496Z,100011.00
2022-09-22T01:14:08.545Z,100003.91
2022-09-22T01:15:39.160Z,100003.13
2022-09-22T01:16:52.272Z,100011.41
2022-09-22T01:18:08.257Z,100005.47
2022-09-22T01:19:48.005Z,100008.25
2022-09-22T01:21:10.568Z,100003.84
2022-09-22T01:22:50.735Z,100008.66
2022-09-22T01:24:23.519Z,100013.81
2022-09-22T01:25:51.796Z,100013.44
2022-09-22T01:27:00.124Z,100020.88
2022-09-22T01:29:04.275Z,100015.38
2022-09-22T01:30:24.858Z,100021.75
2022-09-22T01:31:57.471Z,100018.56
2022-09-22T01:33:08.489Z,100012.59
2022-09-22T01:34:39.577Z,100009.06
2022-09-22T01:36:12.226Z,100011.03
2022-09-22T01:37:14.189Z,100010.69
2022-09-22T01:38:48.362Z,100005.91
2022-09-22T01:40:05.151Z,100007.47
2022-09-22T01:41:15.987Z,99992.44
2022-09-22T01:42:55.565Z,100001.50
2022-09-22T01:44:07.719Z,100000.28
2022-09-22T01:45:16.219Z,99992.81
2022-09-22T01:46:28.570Z,99994.38
2022-09-22T01:47:40.905Z,100000.72
2022-09-22T01:48:48.564Z,100000.34
2022-09-22T01:50:02.652Z,100002.72
2022-09-22T01:51:22.062Z,99997.97
2022-09-22T01:52:31.615Z,99996.78
2022-09-22T01:53:41.181Z,100002.34
2022-09-22T01:54:54.441Z,100006.69
2022-09-22T01:56:00.928Z,100012.22
2022-09-22T01:57:23.372Z,100006.69
2022-09-22T01:58:31.624Z,100009.06
2022-09-22T01:59:38.130Z,100008.66
2022-09-22T02:01:01.220Z,100014.19
2022-09-22T02:02:11.698Z,100010.69
2022-09-22T02:03:46.083Z,100013.03
2022-09-22T02:04:57.175Z,100005.91
2022-09-22T02:06:15.324Z,100010.69
2022-09-22T02:07:25.934Z,100008.25
2022-09-22T02:08:28.711Z,100009.84
2022-09-22T02:09:35.164Z,100009.09
2022-09-22T02:10:47.130Z,100011.44
2022-09-22T02:11:49.580Z,100013.81
2022-09-22T02:12:52.829Z,100015.34
2022-09-22T02:13:57.857Z,100018.97
2022-09-22T02:15:01.024Z,100016.97
2022-09-22T02:16:04.753Z,100017.75
2022-09-22T02:17:07.643Z,100016.97
2022-09-22T02:18:16.288Z,100024.13
2022-09-22T02:19:27.113Z,100020.19
2022-09-22T02:20:29.783Z,100020.53
2022-09-22T02:21:33.172Z,100020.91
2022-09-22T02:22:35.731Z,100016.56
2022-09-22T02:23:38.822Z,100016.94
2022-09-22T02:24:44.319Z,100015.34
2022-09-22T02:25:47.520Z,100014.59
2022-09-22T02:26:53.333Z,100015.38
2022-09-22T02:27:59.096Z,100018.59
2022-09-22T02:29:09.400Z,100012.66
2022-09-22T02:30:13.349Z,100013.84
2022-09-22T02:31:20.743Z,100012.66
2022-09-22T02:32:24.484Z,100007.53
2022-09-22T02:33:29.393Z,100016.22
2022-09-22T02:34:32.088Z,100013.06
2022-09-22T02:35:37.615Z,100010.31
2022-09-22T02:37:09.387Z,100012.25
2022-09-22T02:38:20.897Z,100017.78
2022-09-22T02:39:36.045Z,100010.69
2022-09-22T02:41:18.898Z,100008.66
2022-09-22T02:42:27.649Z,100006.28
2022-09-22T02:43:36.846Z,100001.94
2022-09-22T02:45:13.125Z,100001.94
2022-09-22T02:46:39.264Z,100008.25
2022-09-22T02:47:50.804Z,100011.81
2022-09-22T02:49:01.512Z,100013.78
2022-09-22T02:50:09.013Z,100008.25
2022-09-22T02:51:13.545Z,100012.22
2022-09-22T02:52:20.737Z,100011.81
2022-09-22T02:53:24.488Z,100014.56
2022-09-22T02:54:27.926Z,100012.22
2022-09-22T02:55:33.363Z,100011.03
2022-09-22T02:56:35.826Z,100020.53
2022-09-22T02:57:38.361Z,100014.63
2022-09-22T02:58:40.590Z,100010.66
2022-09-22T02:59:44.169Z,100017.00
2022-09-22T03:00:49.474Z,100008.25
2022-09-22T03:01:51.517Z,100009.84
2022-09-22T03:02:53.553Z,100015.00
2022-09-22T03:03:56.364Z,100020.16
2022-09-22T03:04:59.328Z,100013.00
2022-09-22T03:06:01.598Z,100017.75
2022-09-22T03:07:08.625Z,100019.34
2022-09-22T03:08:14.756Z,100017.38
2022-09-22T03:09:19.865Z,100021.69
2022-09-22T03:10:23.410Z,100028.88
2022-09-22T03:11:28.638Z,100024.06
2022-09-22T03:12:32.043Z,100034.38
2022-09-22T03:13:36.580Z,100021.31
2022-09-22T03:14:38.641Z,100029.22
2022-09-22T03:15:40.987Z,100032.00
2022-09-22T03:16:43.177Z,100041.91
2022-09-22T03:17:47.419Z,100033.59
2022-09-22T03:18:51.911Z,100033.97
2022-09-22T03:19:53.981Z,100034.78
2022-09-22T03:20:57.035Z,100034.78
2022-09-22T03:22:00.102Z,100036.41
2022-09-22T03:23:04.617Z,100037.19
2022-09-22T03:24:07.147Z,100035.63
2022-09-22T03:25:10.851Z,100035.63
2022-09-22T03:26:13.400Z,100040.00
2022-09-22T03:27:15.493Z,100038.03
2022-09-22T03:28:17.606Z,100049.50
2022-09-22T03:29:23.449Z,100040.00
2022-09-22T03:30:26.863Z,100040.81
2022-09-22T03:31:31.676Z,100041.59
2022-09-22T03:32:34.816Z,100039.59
2022-09-22T03:33:37.414Z,100051.06
2022-09-22T03:34:40.058Z,100047.91
2022-09-22T03:35:42.631Z,100047.06
2022-09-22T03:36:45.131Z,100047.44
2022-09-22T03:37:48.527Z,100052.59
2022-09-22T03:38:54.789Z,100051.03
2022-09-22T03:40:01.558Z,100045.47
2022-09-22T03:41:04.678Z,100041.50
2022-09-22T03:42:07.594Z,100046.25
2022-09-22T03:43:16.496Z,100049.00
2022-09-22T03:44:18.728Z,100051.81
2022-09-22T03:45:22.212Z,100055.03
2022-09-22T03:46:26.269Z,100049.47
2022-09-22T03:47:28.319Z,100047.84
2022-09-22T03:48:31.590Z,100055.72
2022-09-22T03:49:33.865Z,100056.50
2022-09-22T03:50:35.979Z,100052.59
2022-09-22T03:51:39.480Z,100046.25
2022-09-22T03:52:45.294Z,100043.03
2022-09-22T03:53:47.511Z,100047.81
2022-09-22T03:54:52.600Z,100053.34
2022-09-22T03:56:05.536Z,100047.00
2022-09-22T03:57:08.176Z,100047.03
2022-09-22T04:00:14.581Z,100042.22
2022-09-22T04:01:16.752Z,100041.47
2022-09-22T04:02:18.900Z,100047.81
2022-09-22T04:03:20.945Z,100042.22
2022-09-22T04:04:23.170Z,100041.44
2022-09-22T04:05:26.047Z,100048.59
2022-09-22T04:06:28.331Z,100046.19
2022-09-22T04:07:30.328Z,100045.00
2022-09-22T04:08:32.419Z,100044.63
2022-09-22T04:09:35.983Z,100042.63
2022-09-22T04:10:40.309Z,100044.28
2022-09-22T04:11:47.121Z,100049.41
2022-09-22T04:12:49.648Z,100045.44
2022-09-22T04:13:51.832Z,100043.06
2022-09-22T04:14:54.115Z,100044.66
2022-09-22T04:15:56.205Z,100035.59
2022-09-22T04:17:00.012Z,100028.09
2022-09-22T04:18:02.184Z,100038.78
2022-09-22T04:19:05.185Z,100040.34
2022-09-22T04:20:12.217Z,100033.63
2022-09-22T04:21:14.334Z,100049.47
2022-09-22T04:22:16.344Z,100036.78
2022-09-22T04:23:18.412Z,100031.97
2022-09-22T04:24:20.958Z,100036.72
2022-09-22T04:25:23.497Z,100029.19
2022-09-22T04:26:25.668Z,100037.56
2022-09-22T04:27:29.996Z,100031.66
2022-09-22T04:28:33.434Z,100030.47
2022-09-22T04:29:35.502Z,100035.28
2022-09-22T04:30:37.770Z,100039.19
2022-09-22T04:31:40.971Z,100035.25
2022-09-22T04:32:45.019Z,100036.00
2022-09-22T04:33:47.113Z,100030.84
2022-09-22T04:34:49.589Z,100028.06
2022-09-22T04:35:52.334Z,100030.41
2022-09-22T04:36:54.544Z,100032.84
2022-09-22T04:37:58.200Z,100038.78
2022-09-22T04:39:03.692Z,100035.25
2022-09-22T04:40:06.516Z,100037.19
2022-09-22T04:41:08.661Z,100026.50
2022-09-22T04:42:10.936Z,100033.66
2022-09-22T04:43:14.266Z,100039.19
2022-09-22T04:44:18.422Z,100033.69
2022-09-22T04:45:21.617Z,100036.84
2022-09-22T04:46:24.862Z,100032.09
2022-09-22T04:47:27.081Z,100037.63
2022-09-22T04:48:29.301Z,100043.19
2022-09-22T04:49:37.652Z,100043.19
2022-09-22T04:50:47.183Z,100046.34
2022-09-22T04:51:51.567Z,100049.09
2022-09-22T04:52:56.735Z,100049.13
2022-09-22T04:53:59.167Z,100051.06
2022-09-22T04:55:01.746Z,100049.88
2022-09-22T04:56:05.675Z,100051.03
2022-09-22T04:57:08.413Z,100046.31
2022-09-22T04:58:10.446Z,100047.50
2022-09-22T04:59:15.288Z,100053.84
2022-09-22T05:00:19.847Z,100049.47
2022-09-22T05:01:22.664Z,100053.47
2022-09-22T05:02:25.015Z,100049.50
2022-09-22T05:03:27.326Z,100046.34
2022-09-22T05:04:30.574Z,100053.06
2022-09-22T05:05:32.970Z,100047.56
2022-09-22T05:06:36.887Z,100047.91
2022-09-22T05:07:49.808Z,100037.66
2022-09-22T05:08:52.268Z,100047.94
2022-09-22T05:09:55.347Z,100048.78
2022-09-22T05:10:57.671Z,100050.34
2022-09-22T05:12:01.646Z,100053.50
2022-09-22T05:13:05.945Z,100049.13
2022-09-22T05:14:08.014Z,100052.69
2022-09-22T05:15:12.779Z,100050.34
2022-09-22T05:16:14.961Z,100050.31
2022-09-22T05:17:17.453Z,100048.72
2022-09-22T05:18:21.431Z,100040.00
2022-09-22T05:19:23.725Z,100050.34
2022-09-22T05:20:25.962Z,100045.16
2022-09-22T05:21:28.517Z,100036.81
2022-09-22T05:22:31.173Z,100039.25
2022-09-22T05:23:33.319Z,100036.13
2022-09-22T05:24:35.503Z,100034.91
2022-09-22T05:25:39.382Z,100036.91
2022-09-22T05:26:42.790Z,100039.28
2022-09-22T05:27:53.420Z,100046.03
2022-09-22T05:28:55.703Z,100040.09
2022-09-22T05:29:57.884Z,100041.28
2022-09-22T05:31:01.200Z,100040.09
2022-09-22T05:32:03.976Z,100040.09
2022-09-22T05:33:06.120Z,100035.34
2022-09-22T05:34:08.465Z,100032.97
2022-09-22T05:35:15.923Z,100040.91
2022-09-22T05:36:18.076Z,100029.00
2022-09-22T05:37:20.106Z,100029.41
2022-09-22T05:38:22.296Z,100026.22
2022-09-22T05:39:25.676Z,100035.34
2022-09-22T05:40:27.863Z,100032.97
2022-09-22T05:41:30.137Z,100017.09
2022-09-22T05:42:32.245Z,100027.41
2022-09-22T05:43:34.478Z,100035.34
2022-09-22T05:44:39.664Z,100030.56
2022-09-22T05:45:42.619Z,100029.78
2022-09-22T05:46:47.054Z,100028.22
2022-09-22T05:47:50.116Z,100032.94
2022-09-22T05:48:52.629Z,100031.31
2022-09-22T05:49:55.205Z,100032.84
2022-09-22T05:50:58.412Z,100035.25
2022-09-22T05:52:01.100Z,100037.59
2022-09-22T05:53:09.606Z,100041.53
2022-09-22T05:54:12.700Z,100038.03
2022-09-22T05:55:15.632Z,100037.25
2022-09-22T05:56:17.844Z,100041.59
2022-09-22T05:57:25.606Z,100039.22
2022-09-22T05:58:27.687Z,100030.50
2022-09-22T05:59:31.587Z,100050.25
2022-09-22T06:00:36.123Z,100036.03
2022-09-22T06:01:39.177Z,100042.75
2022-09-22T06:02:44.598Z,100037.66
2022-09-22T06:03:47.806Z,100035.28
2022-09-22T06:04:50.513Z,100040.00
2022-09-22T06:05:52.616Z,100039.25
2022-09-22T06:06:54.623Z,100038.44
2022-09-22T06:08:03.611Z,100047.97
2022-09-22T06:09:05.972Z,100038.88
2022-09-22T06:10:11.225Z,100036.88
2022-09-22T06:11:13.399Z,100044.81
2022-09-22T06:12:15.731Z,100038.50
2022-09-22T06:13:18.211Z,100037.69
2022-09-22T06:14:20.308Z,100037.31
2022-09-22T06:15:22.559Z,100036.94
2022-09-22T06:16:24.807Z,100031.41
2022-09-22T06:17:27.864Z,100036.94
2022-09-22T06:18:31.670Z,100029.41
2022-09-22T06:19:34.162Z,100038.53
2022-09-22T06:20:38.637Z,100034.16
2022-09-22T06:21:43.065Z,100040.91
2022-09-22T06:22:46.675Z,100031.38
2022-09-22T06:23:49.137Z,100034.94
2022-09-22T06:24:51.278Z,100033.75
2022-09-22T06:25:58.407Z,100040.91
2022-09-22T06:27:00.467Z,100034.16
2022-09-22T06:28:07.590Z,100036.94
2022-09-22T06:29:10.818Z,100040.09
2022-09-22T06:30:13.949Z,100032.19
2022-09-22T06:31:16.155Z,100041.69
2022-09-22T06:32:19.357Z,100043.69
2022-09-22T06:33:24.179Z,100039.72
2022-09-22T06:34:27.592Z,100036.16
2022-09-22T06:35:37.866Z,100047.66
2022-09-22T06:36:43.353Z,100036.94
2022-09-22T06:37:47.879Z,100037.72
2022-09-22T06:38:50.949Z,100032.19
2022-09-22T06:39:53.236Z,100031.78
2022-09-22T06:41:01.948Z,100027.81
2022-09-22T06:42:05.517Z,100032.19
2022-09-22T06:43:15.241Z,100023.06
2022-09-22T06:44:20.297Z,100027.38
2022-09-22T06:45:23.076Z,100022.63
2022-09-22T06:46:27.363Z,100023.34
2022-09-22T06:47:30.136Z,100022.56
2022-09-22T06:48:35.895Z,100029.75
2022-09-22T06:49:38.344Z,100025.81
2022-09-22T06:50:41.620Z,100022.59
2022-09-22T06:51:46.632Z,100023.81
2022-09-22T06:52:52.189Z,100023.41
2022-09-22T06:53:58.196Z,100027.31
2022-09-22T06:55:01.589Z,100025.25
2022-09-22T06:56:08.076Z,100016.91
2022-09-22T06:57:10.881Z,100029.16
2022-09-22T06:58:14.787Z,100025.19
2022-09-22T06:59:18.651Z,100025.53
2022-09-22T07:00:21.056Z,100040.34
2022-09-22T07:01:24.689Z,100026.44
2022-09-22T07:02:29.282Z,100022.41
2022-09-22T07:03:35.345Z,100022.41
2022-09-22T07:04:37.728Z,100028.91
2022-09-22T07:05:40.015Z,100029.75
2022-09-22T07:06:45.332Z,100021.38
2022-09-22T07:07:47.736Z,100027.38
2022-09-22T07:08:50.048Z,100032.94
2022-09-22T07:09:52.135Z,100029.38
2022-09-22T07:10:59.440Z,100033.69
2022-09-22T07:12:04.242Z,100030.16
2022-09-22T07:13:06.552Z,100033.75
2022-09-22T07:14:08.924Z,100027.81
2022-09-22T07:15:11.249Z,100034.53
2022-09-22T07:16:17.715Z,100032.16
2022-09-22T07:17:23.856Z,100042.47
2022-09-22T07:18:26.331Z,100039.31
2022-09-22T07:19:28.959Z,100031.00
2022-09-22T07:20:34.041Z,100031.34
2022-09-22T07:21:38.288Z,100029.81
2022-09-22T07:22:42.031Z,100036.56
2022-09-22T07:23:51.647Z,100033.38
2022-09-22T07:24:53.921Z,100034.97
2022-09-22T07:26:01.102Z,100039.75
2022-09-22T07:27:04.925Z,100038.50
2022-09-22T07:28:07.134Z,100031.41
2022-09-22T07:29:13.947Z,100036.13
2022-09-22T07:30:16.060Z,100039.72
2022-09-22T07:31:20.111Z,100038.50
2022-09-22T07:32:23.204Z,100045.66
2022-09-22T07:33:27.188Z,100042.47
2022-09-22T07:34:29.513Z,100045.22
2022-09-22T07:35:35.464Z,100050.78
2022-09-22T07:36:38.052Z,100044.03
2022-09-22T07:37:41.524Z,100042.44
2022-09-22T07:38:45.731Z,100053.16
2022-09-22T07:39:48.270Z,100053.97
2022-09-22T07:40:53.787Z,100057.94
2022-09-22T07:41:55.919Z,100051.59
2022-09-22T07:43:01.552Z,100049.19
2022-09-22T07:44:22.354Z,100051.97
2022-09-22T07:45:24.474Z,100050.78
2022-09-22T07:46:26.761Z,100060.72
2022-09-22T07:47:47.082Z,100060.72
2022-09-22T07:48:49.495Z,100067.88
2022-09-22T07:49:51.554Z,100069.47
2022-09-22T07:51:00.598Z,100068.69
2022-09-22T07:52:02.929Z,100065.91
2022-09-22T07:53:05.323Z,100065.50
2022-09-22T07:54:07.629Z,100070.66
2022-09-22T07:55:10.098Z,100068.69
2022-09-22T07:56:15.253Z,100070.28
2022-09-22T07:57:17.364Z,100063.50
2022-09-22T07:58:21.321Z,100061.16
2022-09-22T07:59:23.390Z,100066.28
2022-09-22T08:00:28.414Z,100063.91
2022-09-22T08:01:42.263Z,100063.09
2022-09-22T08:02:51.312Z,100067.47
2022-09-22T08:03:53.400Z,100060.72
2022-09-22T08:05:00.219Z,100058.34
2022-09-22T08:06:12.511Z,100066.69
2022-09-22T08:07:15.459Z,100065.91
2022-09-22T08:08:17.574Z,100066.66
2022-09-22T08:09:19.811Z,100064.31
2022-09-22T08:10:22.567Z,100056.75
2022-09-22T08:11:27.295Z,100063.84
2022-09-22T08:12:29.606Z,100059.13
2022-09-22T08:13:31.971Z,100063.50
2022-09-22T08:14:34.094Z,100059.97
2022-09-22T08:15:36.137Z,100071.06
2022-09-22T08:16:40.370Z,100062.34
2022-09-22T08:17:44.134Z,100065.13
2022-09-22T08:18:52.341Z,100058.78
2022-09-22T08:19:56.973Z,100060.78
2022-09-22T08:21:02.201Z,100058.75
2022-09-22T08:22:04.440Z,100056.78
2022-09-22T08:23:07.846Z,100054.78
2022-09-22T08:24:12.269Z,100066.69
2022-09-22T08:25:14.745Z,100063.91
2022-09-22T08:26:16.819Z,100062.72
2022-09-22T08:27:19.467Z,100058.34
2022-09-22T08:28:21.717Z,100060.69
2022-09-22T08:29:24.741Z,100063.50
2022-09-22T08:30:27.194Z,100062.31
2022-09-22T08:31:31.616Z,100060.34
2022-09-22T08:32:36.234Z,100055.97
2022-09-22T08:33:39.866Z,100052.03
2022-09-22T08:34:42.639Z,100048.44
2022-09-22T08:35:55.003Z,100046.06
2022-09-22T08:36:57.129Z,100061.13
2022-09-22T08:37:59.552Z,100047.25
2022-09-22T08:39:06.739Z,100054.00
2022-09-22T08:40:17.747Z,100053.19
2022-09-22T08:41:29.340Z,100054.75
2022-09-22T08:42:34.262Z,100056.75
2022-09-22T08:43:55.354Z,100053.53
2022-09-22T08:45:11.393Z,100060.72
2022-09-22T08:46:14.898Z,100059.13
2022-09-22T08:47:40.254Z,100059.19
2022-09-22T08:49:05.503Z,100055.16
2022-09-22T08:50:42.324Z,100060.75
2022-09-22T08:51:55.378Z,100065.50
2022-09-22T08:52:59.341Z,100063.56
2022-09-22T08:54:03.726Z,100057.97
2022-09-22T08:55:13.682Z,100061.97
2022-09-22T08:56:34.250Z,100068.66
2022-09-22T08:57:56.477Z,100059.53
2022-09-22T08:59:09.016Z,100070.66
2022-09-22T09:00:19.198Z,100067.09
2022-09-22T09:01:32.291Z,100072.66
2022-09-22T09:02:43.433Z,100071.88
2022-09-22T09:03:56.272Z,100065.09
2022-09-22T09:05:07.191Z,100072.25
2022-09-22T09:06:16.323Z,100071.06
2022-09-22T09:07:20.598Z,100074.25
2022-09-22T09:08:52.361Z,100068.69
2022-09-22T09:10:27.762Z,100063.50
2022-09-22T09:12:07.021Z,100073.44
2022-09-22T09:13:54.100Z,100070.28
2022-09-22T09:15:04.140Z,100070.25
2022-09-22T09:16:27.475Z,100073.41
2022-09-22T09:17:33.894Z,100070.28
2022-09-22T09:18:41.995Z,100073.44
2022-09-22T09:19:48.546Z,100073.44
2022-09-22T09:20:52.385Z,100068.63
2022-09-22T09:22:02.705Z,100069.00
2022-09-22T09:23:21.642Z,100067.34
2022-09-22T09:25:56.699Z,100069.34
2022-09-22T09:27:07.158Z,100069.06
2022-09-22T09:28:37.651Z,100067.41
2022-09-22T09:30:00.543Z,100079.31
2022-09-22T09:31:30.757Z,100069.44
2022-09-22T09:32:56.886Z,100064.28
2022-09-22T09:34:03.223Z,100064.66
2022-09-22T09:35:09.257Z,100063.09
2022-09-22T09:36:18.374Z,100067.88
2022-09-22T09:37:21.197Z,100058.72
2022-09-22T09:38:31.112Z,100059.09
2022-09-22T09:39:37.253Z,100065.84
2022-09-22T09:40:39.306Z,100059.06
2022-09-22T09:41:43.628Z,100051.91
2022-09-22T09:43:03.351Z,100055.88
2022-09-22T09:44:07.435Z,100061.81
2022-09-22T09:45:16.084Z,100054.19
2022-09-22T09:46:42.182Z,100050.06
2022-09-22T09:47:59.712Z,100048.00
2022-09-22T09:49:05.919Z,100043.97
2022-09-22T09:50:11.457Z,100045.78
2022-09-22T09:51:14.478Z,100047.31
2022-09-22T09:52:19.050Z,100043.44
2022-09-22T09:53:41.597Z,100045.56
2022-09-22T09:54:47.376Z,100043.81
2022-09-22T09:55:50.861Z,100041.00
2022-09-22T09:57:11.550Z,100054.16
2022-09-22T09:58:36.450Z,100043.66
2022-09-22T10:00:05.215Z,100049.53
2022-09-22T10:01:17.591Z,100053.47
2022-09-22T10:02:25.474Z,100052.31
2022-09-22T10:03:34.397Z,100051.63
2022-09-22T10:04:38.548Z,100038.09
2022-09-22T10:05:41.210Z,100052.25
2022-09-22T10:06:43.819Z,100045.19
2022-09-22T10:07:53.866Z,100050.91
2022-09-22T10:08:57.427Z,100040.59
2022-09-22T10:10:38.525Z,100046.03
2022-09-22T10:11:43.003Z,100051.47
2022-09-22T10:12:46.370Z,100045.19
2022-09-22T10:13:56.798Z,100040.41
2022-09-22T10:15:01.022Z,100046.78
2022-09-22T10:16:26.358Z,100046.34
2022-09-22T10:17:33.929Z,100042.34
2022-09-22T10:18:40.830Z,100040.41
2022-09-22T10:19:43.143Z,100033.16
2022-09-22T10:20:45.436Z,100044.41
2022-09-22T10:21:49.760Z,100033.38
2022-09-22T10:22:52.831Z,100031.34
2022-09-22T10:23:57.466Z,100038.81
2022-09-22T10:25:04.235Z,100026.38
2022-09-22T10:26:22.962Z,100030.78
2022-09-22T10:27:28.728Z,100032.34
2022-09-22T10:28:31.228Z,100028.06
2022-09-22T10:29:33.556Z,100025.28
2022-09-22T10:30:39.961Z,100027.78
2022-09-22T10:32:00.747Z,100029.38
2022-09-22T10:33:12.900Z,100036.53
2022-09-22T10:34:32.480Z,100035.31
2022-09-22T10:35:38.705Z,100032.53
2022-09-22T10:36:45.877Z,100036.94
2022-09-22T10:38:10.271Z,100041.63
2022-09-22T10:39:19.015Z,100034.78
2022-09-22T10:40:23.967Z,100031.75
2022-09-22T10:41:34.559Z,100033.59
2022-09-22T10:42:43.648Z,100032.78
2022-09-22T10:43:55.128Z,100022.44
2022-09-22T10:45:03.088Z,100030.91
2022-09-22T10:46:17.510Z,100032.88
2022-09-22T10:48:04.363Z,100025.41
2022-09-22T10:49:35.419Z,100030.50
2022-09-22T10:50:49.498Z,100030.06
2022-09-22T10:52:13.482Z,100029.28
2022-09-22T10:53:52.292Z,100030.91
2022-09-22T10:54:54.356Z,100022.19
2022-09-22T10:56:10.059Z,100026.03
2022-09-22T10:57:42.643Z,100031.66
2022-09-22T10:59:03.091Z,100021.06
2022-09-22T11:00:14.467Z,100028.16
2022-09-22T11:01:44.883Z,100017.94
2022-09-22T11:02:59.255Z,100015.66
2022-09-22T11:04:09.433Z,100015.72
2022-09-22T11:06:01.920Z,100017.13
2022-09-22T11:07:29.660Z,100009.78
2022-09-22T11:09:10.759Z,100013.25
2022-09-22T11:10:56.499Z,100015.22
2022-09-22T11:12:16.911Z,100010.97
2022-09-22T11:13:34.807Z,100006.19
2022-09-22T11:15:03.593Z,100007.88
2022-09-22T11:16:23.946Z,100004.50
2022-09-22T11:17:45.308Z,100007.75
2022-09-22T11:19:23.334Z,100006.16
2022-09-22T11:20:34.480Z,100001.34
2022-09-22T11:21:45.619Z,100004.44
2022-09-22T11:23:37.452Z,100002.47
2022-09-22T11:25:04.413Z,100002.63
2022-09-22T11:26:36.987Z,100001.13
2022-09-22T11:28:04.524Z,100001.50
2022-09-22T11:29:07.592Z,99994.34
2022-09-22T11:30:24.267Z,99993.00
2022-09-22T11:31:46.903Z,99993.44
2022-09-22T11:32:57.919Z,99995.31
2022-09-22T11:34:19.550Z,99990.53
2022-09-22T11:35:24.636Z,99995.78
2022-09-22T11:36:41.546Z,99994.13
2022-09-22T11:37:52.610Z,99991.41
2022-09-22T11:39:17.603Z,99999.88
2022-09-22T11:40:23.014Z,99999.34
2022-09-22T11:41:42.831Z,99992.53
2022-09-22T11:43:42.259Z,99999.03
2022-09-22T11:45:04.563Z,99993.41
2022-09-22T11:46:28.245Z,99995.94
2022-09-22T11:47:58.050Z,99996.69
2022-09-22T11:49:13.300Z,99999.13
2022-09-22T11:50:35.146Z,99988.63
2022-09-22T11:51:50.666Z,99983.94
2022-09-22T11:53:13.964Z,99988.00
2022-09-22T11:54:15.926Z,99990.22
2022-09-22T11:55:31.123Z,99983.22
2022-09-22T11:56:43.027Z,99973.19
2022-09-22T11:57:51.315Z,99977.06
2022-09-22T11:58:59.300Z,99979.66
2022-09-22T12:00:13.180Z,99972.75
2022-09-22T12:01:20.536Z,99973.94
2022-09-22T12:02:38.845Z,99977.47
2022-09-22T12:04:01.573Z,99978.25
2022-09-22T12:05:23.081Z,99971.91
2022-09-22T12:06:37.776Z,99977.41
2022-09-22T12:07:48.349Z,99968.56
2022-09-22T12:08:56.669Z,99972.56
2022-09-22T12:10:06.831Z,99969.59
2022-09-22T12:11:14.395Z,99975.06
2022-09-22T12:12:22.871Z,99975.13
2022-09-22T12:13:28.324Z,99969.97
2022-09-22T12:14:31.969Z,99965.94
2022-09-22T12:15:40.312Z,99969.56
2022-09-22T12:16:54.750Z,99971.91
2022-09-22T12:18:24.744Z,99972.75
2022-09-22T12:21:12.483Z,99974.31
2022-09-22T12:22:21.956Z,99971.03
2022-09-22T12:23:41.248Z,99973.47
2022-09-22T12:24:47.547Z,99970.22
2022-09-22T12:25:54.850Z,99970.47
2022-09-22T12:26:57.133Z,99972.28
2022-09-22T12:27:59.294Z,99971.69
2022-09-22T12:29:07.194Z,99974.47
2022-09-22T12:30:22.856Z,99969.31
2022-09-22T12:31:40.536Z,99970.41
2022-09-22T12:32:46.236Z,99962.25
2022-09-22T12:33:56.364Z,99963.94
2022-09-22T12:35:00.331Z,99965.78
2022-09-22T12:36:04.435Z,99961.34
2022-09-22T12:37:31.353Z,99966.22
2022-09-22T12:38:33.997Z,99962.25
2022-09-22T12:39:42.120Z,99960.59
2022-09-22T12:40:50.228Z,99966.06
2022-09-22T12:42:08.398Z,99957.88
2022-09-22T12:43:20.856Z,99964.66
2022-09-22T12:44:27.281Z,99966.28
2022-09-22T12:45:34.244Z,99949.53
2022-09-22T12:46:36.387Z,99956.69
2022-09-22T12:47:41.822Z,99958.34
2022-09-22T12:48:45.405Z,99961.47
2022-09-22T12:49:51.115Z,99961.78
2022-09-22T12:50:53.543Z,99963.72
2022-09-22T12:51:55.778Z,99961.72
2022-09-22T12:53:07.935Z,99967.72
2022-09-22T12:54:27.933Z,99967.59
2022-09-22T12:55:39.428Z,99967.56
2022-09-22T12:56:46.728Z,99967.25
2022-09-22T12:57:51.299Z,99964.47
2022-09-22T12:58:54.181Z,99957.22
2022-09-22T13:00:06.034Z,99961.22
2022-09-22T13:01:43.523Z,99954.22
2022-09-22T13:02:47.417Z,99947.81
2022-09-22T13:03:52.642Z,99951.84
2022-09-22T13:04:58.272Z,99956.75
2022-09-22T13:06:22.710Z,99951.09
2022-09-22T13:07:39.763Z,99954.28
2022-09-22T13:08:44.894Z,99947.88
2022-09-22T13:09:47.029Z,99947.22